Accueil
METAR-TAF:

METAR-TAF

Aéroports :

Aérodrome de La Roche-sur-Yon - Les Ajoncs

La Roche-sur-Yon, France

latitude: 46-42N, longitude: 001-23W, altitude: 90 m

Observation

Le bulletin a été fait il y a 28 minutes, à 04:30 UTC
Vent 7 kt de ouest/nord-ouest
Température 8°C
Humidité 100%
Pression 1016 hPa
Visibilité 10 km ou plus
pas de nuages en-dessous de 1500 mètres et pas de cumulonimbus.

METAR: LFRI 280430Z AUTO 30007KT CAVOK 08/08 Q1016

Heure: 06:58 (04:58 UTC)

Prévision

Le bulletin a été fait il y a 11 heures et 58 minutes, à 17:00 UTC
Prévision valable du 27 à 18 UTC au 28 à 18 UTC
Vent 10 kt de nord-ouest
Visibilité 10 km ou plus
Nuages fragmentés à une hauteur de 4200 ft
Temporairement
du 28 à 13 UTC au 28 à 18 UTC
Nuages fragmentés à une hauteur de 1400 ft
pluie faible

TAF: LFRI 271700Z 2718/2818 31010KT 9999 BKN042 TEMPO 2813/2818 -RA BKN014

Observations et prévisions météorologiques de plus de 4000 aéroports (messages METAR et TAF).

Les stations disponibles sont représentées par des disques jaunes et rouges sur la carte.

Passer la souris dessus pour voir le nom de la station.

Cliquer dessus pour voir les observations et prévisions météorologiques.

Pour changer de carte: cliquez sur les boutons verts avec une croix noire pour zoomer, sur le bouton vert avec un tiret pour effectuer un zoom arrière, ou sur les flèches vertes pour les cartes adjacentes.


METAR-TAF: